| time (UTC) | temp C | wind direction | speed KPH | gust KPH | rain 1hr cm | rain 24hr cm | rain mn cm | humidity % | barometer mb |
| 20260507115612 | 8 | 135 | 0.0 | 0.0 | 0.00 | 0.00 | 0.00 | 93 | 1003.0 |
| 20260507114613 | 8 | 135 | 0.0 | 0.0 | 0.00 | 0.00 | 0.00 | 93 | 1003.0 |
| 20260507113612 | 8 | 90 | 0.0 | 0.0 | 0.00 | 0.00 | 0.00 | 93 | 1003.0 |
| 20260507113112 | 8 | 90 | 0.0 | 0.0 | 0.00 | 0.00 | 0.00 | 93 | 1003.0 |
| 20260507112612 | 8 | 90 | 0.0 | 0.0 | 0.00 | 0.00 | 0.00 | 93 | 1003.0 |
| 20260507111614 | 8 | 90 | 0.0 | 0.0 | 0.00 | 0.00 | 0.00 | 93 | 1003.0 |
| 20260507111112 | 8 | 90 | 0.0 | 0.0 | 0.00 | 0.00 | 0.00 | 93 | 1003.3 |
| 20260507110612 | 8 | 90 | 0.0 | 0.0 | 0.00 | 0.00 | 0.00 | 93 | 1003.3 |
| 20260507110112 | 8 | 90 | 0.0 | 0.0 | 0.00 | 0.00 | 0.00 | 93 | 1003.3 |
| 20260507104112 | 7 | 90 | 0.0 | 0.0 | 0.00 | 0.00 | 0.00 | 93 | 1003.3 |
| 20260507103613 | 7 | 90 | 0.0 | 0.0 | 0.00 | 0.00 | 0.00 | 93 | 1003.3 |
| 20260507103112 | 7 | 90 | 0.0 | 0.0 | 0.00 | 0.00 | 0.00 | 93 | 1003.7 |
| 20260507101112 | 7 | 90 | 0.0 | 0.0 | 0.00 | 0.00 | 0.00 | 93 | 1003.3 |
| 20260507095614 | 7 | 90 | 0.0 | 0.0 | 0.00 | 0.00 | 0.00 | 93 | 1003.0 |
| 20260507095113 | 7 | 90 | 0.0 | 0.0 | 0.00 | 0.00 | 0.00 | 93 | 1002.7 |
| 20260507094612 | 7 | 90 | 0.0 | 0.0 | 0.00 | 0.00 | 0.00 | 93 | 1002.7 |
| 20260507094112 | 7 | 112 | 0.0 | 0.0 | 0.00 | 0.00 | 0.00 | 93 | 1003.0 |
| 20260507093114 | 7 | 112 | 0.0 | 0.0 | 0.00 | 0.00 | 0.00 | 93 | 1002.7 |
| 20260507090613 | 8 | 337 | 0.0 | 0.0 | 0.00 | 0.00 | 0.00 | 93 | 1002.7 |
| 20260507090113 | 8 | 45 | 0.0 | 0.0 | 0.00 | 0.00 | 0.00 | 93 | 1002.7 |
| 20260507085616 | 8 | 270 | 0.0 | 0.0 | 0.00 | 0.00 | 0.00 | 93 | 1002.7 |
| 20260507084112 | 8 | 247 | 0.0 | 0.0 | 0.00 | 0.00 | 0.00 | 93 | 1002.7 |
| 20260507083613 | 8 | 157 | 0.0 | 0.0 | 0.00 | 0.00 | 0.00 | 93 | 1002.7 |
| 20260507083112 | 8 | 157 | 0.0 | 0.0 | 0.00 | 0.00 | 0.00 | 93 | 1002.3 |
| 20260507082613 | 8 | 157 | 0.0 | 0.0 | 0.00 | 0.00 | 0.00 | 93 | 1002.0 |
| 20260507082113 | 8 | 112 | 0.0 | 0.0 | 0.00 | 0.00 | 0.00 | 93 | 1002.3 |
| 20260507081115 | 8 | 135 | 0.0 | 0.0 | 0.00 | 0.00 | 0.00 | 93 | 1002.7 |
| 20260507075612 | 8 | 67 | 0.0 | 0.0 | 0.00 | 0.00 | 0.00 | 93 | 1002.3 |
| 20260507075113 | 9 | 67 | 0.0 | 0.0 | 0.00 | 0.00 | 0.00 | 93 | 1002.0 |
| 20260507074612 | 9 | 67 | 0.0 | 0.0 | 0.00 | 0.00 | 0.00 | 92 | 1002.3 |
| 20260507073612 | 9 | 67 | 0.0 | 0.0 | 0.00 | 0.00 | 0.00 | 92 | 1002.3 |
| 20260507072112 | 9 | 112 | 0.0 | 0.0 | 0.00 | 0.00 | 0.00 | 92 | 1002.0 |
| 20260507071616 | 9 | 135 | 0.0 | 0.0 | 0.00 | 0.00 | 0.00 | 92 | 1002.0 |
| 20260507071113 | 9 | 135 | 0.0 | 0.0 | 0.00 | 0.00 | 0.00 | 92 | 1001.6 |
| 20260507070617 | 9 | 135 | 0.0 | 0.0 | 0.00 | 0.00 | 0.00 | 92 | 1001.6 |
| 20260507070116 | 9 | 135 | 0.0 | 0.0 | 0.00 | 0.00 | 0.00 | 92 | 1002.0 |
| 20260507065113 | 9 | 90 | 0.0 | 0.0 | 0.00 | 0.00 | 0.00 | 92 | 1001.6 |
| 20260507064612 | 10 | 90 | 0.0 | 0.0 | 0.00 | 0.00 | 0.00 | 92 | 1001.6 |
| 20260507063115 | 10 | 135 | 0.0 | 0.0 | 0.00 | 0.00 | 0.00 | 93 | 1001.6 |
| 20260507062113 | 10 | 225 | 0.0 | 0.0 | 0.00 | 0.00 | 0.00 | 93 | 1001.3 |
| 20260507061616 | 10 | 22 | 0.0 | 0.0 | 0.00 | 0.00 | 0.00 | 93 | 1001.6 |
| 20260507060613 | 10 | 157 | 0.0 | 0.0 | 0.00 | 0.00 | 0.00 | 93 | 1001.6 |
| 20260507060115 | 10 | 225 | 0.0 | 0.0 | 0.00 | 0.00 | 0.00 | 93 | 1001.3 |
| 20260507053616 | 10 | 112 | 0.0 | 0.0 | 0.00 | 0.00 | 0.00 | 93 | 1001.3 |
| 20260507052113 | 10 | 67 | 0.0 | 0.0 | 0.00 | 0.00 | 0.00 | 93 | 1001.3 |
| 20260507044613 | 10 | 90 | 0.0 | 0.0 | 0.00 | 0.00 | 0.00 | 93 | 1001.0 |
| 20260507043113 | 10 | 180 | 0.0 | 0.0 | 0.00 | 0.00 | 0.00 | 93 | 1001.3 |
| 20260507041613 | 9 | 157 | 0.0 | 0.0 | 0.00 | 0.00 | 0.00 | 92 | 1001.0 |
| 20260507041113 | 9 | 225 | 0.0 | 3.2 | 0.00 | 0.00 | 0.00 | 92 | 1000.6 |
| 20260507040613 | 9 | 180 | 1.6 | 3.2 | 0.00 | 0.00 | 0.00 | 92 | 1000.6 |
| 20260507040118 | 9 | 180 | 3.2 | 4.8 | 0.00 | 0.00 | 0.00 | 92 | 1000.6 |
| 20260507035613 | 9 | 225 | 4.8 | 4.8 | 0.00 | 0.00 | 0.00 | 92 | 1000.6 |
| 20260507035117 | 9 | 45 | 0.0 | 0.0 | 0.00 | 0.00 | 0.00 | 92 | 1000.6 |
| 20260507034113 | 9 | 225 | 0.0 | 1.6 | 0.00 | 0.00 | 0.00 | 92 | 1000.6 |
| 20260507033613 | 9 | 202 | 0.0 | 0.0 | 0.00 | 0.00 | 0.00 | 92 | 1000.6 |
| 20260507033113 | 9 | 180 | 0.0 | 0.0 | 0.00 | 0.00 | 0.00 | 92 | 1000.6 |
| 20260507032114 | 9 | 225 | 0.0 | 0.0 | 0.00 | 0.00 | 0.00 | 92 | 1000.6 |
| 20260507031615 | 9 | 247 | 0.0 | 6.4 | 0.00 | 0.00 | 0.00 | 92 | 1000.6 |
| 20260507031113 | 9 | 180 | 6.4 | 6.4 | 0.00 | 0.00 | 0.00 | 92 | 1000.6 |
| 20260507030616 | 10 | 247 | 0.0 | 0.0 | 0.00 | 0.00 | 0.00 | 92 | 1000.6 |
| 20260507030114 | 10 | 180 | 0.0 | 3.2 | 0.00 | 0.00 | 0.00 | 92 | 1000.6 |
| 20260507025613 | 10 | 202 | 3.2 | 4.8 | 0.00 | 0.00 | 0.00 | 92 | 1000.6 |
| 20260507023613 | 10 | 225 | 0.0 | 6.4 | 0.00 | 0.00 | 0.00 | 92 | 1001.0 |
| 20260507023114 | 10 | 135 | 6.4 | 6.4 | 0.00 | 0.00 | 0.00 | 93 | 1001.0 |
| 20260507022115 | 10 | 247 | 0.0 | 1.6 | 0.00 | 0.00 | 0.00 | 93 | 1001.0 |
| 20260507021613 | 10 | 202 | 1.6 | 1.6 | 0.00 | 0.00 | 0.00 | 93 | 1001.3 |
| 20260507015120 | 10 | 67 | 0.0 | 0.0 | 0.00 | 0.00 | 0.00 | 93 | 1001.6 |
| 20260507012613 | 10 | 247 | 0.0 | 8.0 | 0.00 | 0.00 | 0.00 | 92 | 1001.6 |
| 20260507012113 | 10 | 292 | 8.0 | 8.0 | 0.00 | 0.00 | 0.00 | 92 | 1001.6 |
| 20260507011613 | 10 | 337 | 0.0 | 1.6 | 0.00 | 0.00 | 0.00 | 92 | 1001.6 |
| 20260507011113 | 10 | 225 | 1.6 | 4.8 | 0.00 | 0.00 | 0.00 | 92 | 1001.6 |
| 20260507010613 | 10 | 225 | 4.8 | 4.8 | 0.00 | 0.00 | 0.00 | 92 | 1001.6 |
| 20260507010113 | 10 | 247 | 0.0 | 0.0 | 0.00 | 0.00 | 0.00 | 92 | 1001.6 |
| 20260507005613 | 10 | 270 | 0.0 | 3.2 | 0.00 | 0.00 | 0.00 | 92 | 1001.6 |
| 20260507005113 | 10 | 157 | 0.0 | 4.8 | 0.00 | 0.00 | 0.00 | 92 | 1001.6 |
| 20260507004613 | 10 | 225 | 4.8 | 4.8 | 0.00 | 0.00 | 0.00 | 92 | 1001.6 |
| 20260507004113 | 10 | 225 | 0.0 | 1.6 | 0.00 | 0.00 | 0.00 | 92 | 1001.6 |
| 20260507003613 | 10 | 292 | 1.6 | 1.6 | 0.00 | 0.00 | 0.00 | 92 | 1001.6 |
| 20260507003113 | 10 | 22 | 0.0 | 3.2 | 0.00 | 0.00 | 0.00 | 92 | 1002.0 |
| 20260507002613 | 10 | 112 | 0.0 | 0.0 | 0.00 | 0.00 | 0.00 | 92 | 1001.6 |
| 20260507001613 | 10 | 315 | 0.0 | 0.0 | 0.00 | 0.00 | 0.00 | 92 | 1001.6 |
| 20260507000613 | 10 | 270 | 0.0 | 0.0 | 0.00 | 0.00 | 0.00 | 92 | 1001.6 |